Boulder City, NV

5:25 AM PDT on April 29, 2017 (GMT -0700)
Boulder City

Weather History for KBVU - March, 2013

Change the Weather History Date:

Sunday, March 31, 2013

  Actual Average (KLAS) Record (KLAS)
Temperature  
Mean Temperature 68 °F -  
Max Temperature 82 °F 73 °F 91 °F (1966)
Min Temperature 53 °F 47 °F 25 °F (1938)
Cooling Degree Days 2    
Growing Degree Days 18 (Base 50)    
Moisture  
Dew Point 32 °F    
Average Humidity 28    
Maximum Humidity 47    
Minimum Humidity 15    
Precipitation  
Precipitation 0.00 in - - ()
Sea Level Pressure  
Sea Level Pressure 29.94 in    
Wind  
Wind Speed 5 mph (SW)    
Max Wind Speed 23 mph    
Max Gust Speed 26 mph    
Visibility 10 miles    
Events Thunderstorm    
Averages and records for this station are not official NWS values.
T = Trace of Precipitation, MM = Missing Value Source: NWS Daily Summary

Daily Weather History Graph

Daily Weather History Graph

Search for Another Location

Airport or City:

Trip Planner

Search our weather history database for the weather conditions in past years. The results will help you decide how hot, cold, wet, or windy it might be!

Date:

Astronomy

Mar. 31, 2013 Rise Set
Actual Time 6:26 AM PDT 7:00 PM PDT
Civil Twilight 6:00 AM PDT 7:26 PM PDT
Nautical Twilight 5:30 AM PDT 7:56 PM PDT
Astronomical Twilight 4:59 AM PDT 8:28 PM PDT
Moon No Moon Rise 9:26 AM PDT (3/31)
Length of Visible Light 13h 25m
Length of Day
12h 34m
Waning Gibbous, 76% of the Moon is Illuminated
Mar 31
Waning Gibbous
Apr 2
Last Quarter
Apr 10
New
Apr 18
First Quarter
Apr 25
Full

Hourly Weather History & Observations

Time (PDT) Temp. Dew Point Humidity Pressure Visibility Wind Dir Wind Speed Gust Speed Precip Events Conditions
12:15 AM 59.0 °F 32.0 °F 36% 29.98 in 10.0 mi Calm Calm - N/A   Clear
12:35 AM 59.0 °F 32.0 °F 36% 29.98 in 10.0 mi Calm Calm - N/A   Clear
12:55 AM 59.0 °F 32.0 °F 36% 29.98 in 10.0 mi Calm Calm - N/A   Clear
1:15 AM 59.0 °F 32.0 °F 36% 29.97 in 10.0 mi Calm Calm - N/A   Clear
1:35 AM 59.0 °F 32.0 °F 36% 29.97 in 10.0 mi Calm Calm - N/A   Clear
1:55 AM 59.0 °F 32.0 °F 36% 29.97 in 10.0 mi Calm Calm - N/A   Clear
2:15 AM 62.6 °F 32.0 °F 32% 29.97 in 10.0 mi Calm Calm - N/A   Clear
2:35 AM 57.2 °F 32.0 °F 38% 29.97 in 10.0 mi Calm Calm - N/A   Clear
2:55 AM 57.2 °F 35.6 °F 44% 29.96 in 10.0 mi North 3.5 mph - N/A   Clear
3:15 AM 57.2 °F 35.6 °F 44% 29.96 in 10.0 mi North 3.5 mph - N/A   Clear
3:35 AM 57.2 °F 33.8 °F 41% 29.96 in 10.0 mi North 3.5 mph - N/A   Clear
3:55 AM 57.2 °F 32.0 °F 38% 29.96 in 10.0 mi NNE 3.5 mph - N/A   Clear
4:15 AM 57.2 °F 35.6 °F 44% 29.95 in 10.0 mi NNE 4.6 mph - N/A   Clear
4:35 AM 55.4 °F 35.6 °F 47% 29.95 in 10.0 mi NE 5.8 mph - N/A   Clear
4:55 AM 57.2 °F 33.8 °F 41% 29.95 in 10.0 mi NE 5.8 mph - N/A   Clear
5:15 AM 57.2 °F 33.8 °F 41% 29.96 in 10.0 mi NE 5.8 mph - N/A   Clear
5:35 AM 57.2 °F 32.0 °F 38% 29.96 in 10.0 mi Calm Calm - N/A   Clear
5:55 AM 55.4 °F 32.0 °F 41% 29.96 in 10.0 mi Calm Calm - N/A   Clear
6:15 AM 57.2 °F 32.0 °F 38% 29.97 in 10.0 mi Calm Calm - N/A   Clear
6:35 AM 53.6 °F 32.0 °F 44% 29.97 in 10.0 mi North 3.5 mph - N/A   Clear
6:55 AM 55.4 °F 32.0 °F 41% 29.98 in 10.0 mi North 3.5 mph - N/A   Clear
7:15 AM 57.2 °F 33.8 °F 41% 29.99 in 10.0 mi Calm Calm - N/A   Clear
7:35 AM 62.6 °F 32.0 °F 32% 30.00 in 10.0 mi Calm Calm - N/A   Clear
7:55 AM 64.4 °F 30.2 °F 28% 29.99 in 10.0 mi Calm Calm - N/A   Clear
8:15 AM 66.2 °F 30.2 °F 26% 30.00 in 10.0 mi Calm Calm - N/A   Clear
8:35 AM 66.2 °F 30.2 °F 26% 30.00 in 10.0 mi Calm Calm - N/A   Clear
8:55 AM 66.2 °F 32.0 °F 28% 30.00 in 10.0 mi Calm Calm - N/A   Clear
9:15 AM 68.0 °F 32.0 °F 26% 30.00 in 10.0 mi SSW 4.6 mph - N/A   Clear
9:35 AM 71.6 °F 32.0 °F 23% 30.01 in 10.0 mi South 3.5 mph - N/A   Clear
9:55 AM 71.6 °F 32.0 °F 23% 30.01 in 10.0 mi South 4.6 mph - N/A   Clear
10:15 AM 71.6 °F 32.0 °F 23% 30.01 in 10.0 mi SSW 4.6 mph - N/A Thunderstorm Clear
10:35 AM 73.4 °F 32.0 °F 22% 30.01 in 10.0 mi SSW 6.9 mph - N/A   Clear
10:55 AM 75.2 °F 32.0 °F 21% 30.01 in 10.0 mi South 4.6 mph - N/A   Clear
11:15 AM 75.2 °F 32.0 °F 21% 30.00 in 10.0 mi SSE 6.9 mph - N/A Thunderstorm Clear
11:35 AM 75.2 °F 32.0 °F 21% 30.00 in 10.0 mi South 3.5 mph - N/A   Clear
11:55 AM 77.0 °F 32.0 °F 19% 29.99 in 10.0 mi Calm Calm - N/A   Clear
12:15 PM 77.0 °F 32.0 °F 19% 29.98 in 10.0 mi SSW 13.8 mph 19.6 mph N/A   Clear
12:35 PM 77.0 °F 32.0 °F 19% 29.97 in 10.0 mi Calm Calm - N/A   Clear
12:55 PM 80.6 °F 32.0 °F 17% 29.97 in 10.0 mi South 8.1 mph - N/A   Clear
1:15 PM 80.6 °F 32.0 °F 17% 29.95 in 10.0 mi SSW 11.5 mph - N/A   Clear
1:35 PM 77.0 °F 32.0 °F 19% 29.94 in 10.0 mi SW 9.2 mph - N/A Thunderstorm Clear
1:55 PM 80.6 °F 32.0 °F 17% 29.93 in 10.0 mi SSE 5.8 mph - N/A   Scattered Clouds
2:15 PM 82.4 °F 32.0 °F 16% 29.92 in 10.0 mi SSW 16.1 mph 20.7 mph N/A   Partly Cloudy
2:35 PM 82.4 °F 32.0 °F 16% 29.91 in 10.0 mi SSW 11.5 mph 23.0 mph N/A   Partly Cloudy
2:55 PM 80.6 °F 32.0 °F 17% 29.89 in 10.0 mi SW 11.5 mph 19.6 mph N/A   Scattered Clouds
3:15 PM 80.6 °F 32.0 °F 17% 29.89 in 10.0 mi SW 9.2 mph - N/A   Scattered Clouds
3:35 PM 80.6 °F 32.0 °F 17% 29.88 in 10.0 mi WSW 5.8 mph 21.9 mph N/A   Mostly Cloudy
3:55 PM 82.4 °F 32.0 °F 16% 29.87 in 10.0 mi SW 23.0 mph 26.5 mph N/A   Mostly Cloudy
4:15 PM 80.6 °F 32.0 °F 17% 29.87 in 10.0 mi WSW 16.1 mph 21.9 mph N/A   Partly Cloudy
4:35 PM 82.4 °F 32.0 °F 16% 29.86 in 10.0 mi SW 13.8 mph 20.7 mph N/A   Clear
5:15 PM 80.6 °F 28.4 °F 15% 29.86 in 10.0 mi SW 15.0 mph 20.7 mph N/A   Scattered Clouds
5:35 PM 80.6 °F 28.4 °F 15% 29.86 in 10.0 mi WSW 19.6 mph 24.2 mph N/A   Clear
5:55 PM 77.0 °F 28.4 °F 17% 29.85 in 10.0 mi WSW 10.4 mph 19.6 mph N/A   Clear
6:15 PM 77.0 °F 26.6 °F 16% 29.86 in 10.0 mi WSW 16.1 mph - N/A   Clear
6:35 PM 75.2 °F 26.6 °F 17% 29.86 in 10.0 mi WSW 13.8 mph 18.4 mph N/A   Clear
6:55 PM 75.2 °F 26.6 °F 17% 29.86 in 10.0 mi SW 13.8 mph - N/A   Clear
7:15 PM 73.4 °F 26.6 °F 18% 29.86 in 10.0 mi SW 15.0 mph - N/A   Clear
7:35 PM 71.6 °F 26.6 °F 19% 29.86 in 10.0 mi SW 12.7 mph - N/A   Clear
8:15 PM 71.6 °F 28.4 °F 20% 29.87 in 10.0 mi SW 15.0 mph 21.9 mph N/A   Clear
8:35 PM 69.8 °F 30.2 °F 23% 29.88 in 10.0 mi SW 12.7 mph - N/A   Clear
8:55 PM 69.8 °F 32.0 °F 25% 29.88 in 10.0 mi SW 11.5 mph - N/A   Clear
9:15 PM 68.0 °F 32.0 °F 26% 29.88 in 10.0 mi SW 13.8 mph 20.7 mph N/A   Clear
9:35 PM 68.0 °F 32.0 °F 26% 29.88 in 10.0 mi SW 12.7 mph - N/A   Clear
10:15 PM 66.2 °F 35.6 °F 32% 29.89 in 10.0 mi SW 10.4 mph - N/A   Clear
10:35 PM 64.4 °F 37.4 °F 37% 29.89 in 10.0 mi WSW 9.2 mph - N/A   Clear
10:55 PM 64.4 °F 37.4 °F 37% 29.89 in 10.0 mi SW 11.5 mph - N/A   Clear
11:15 PM 64.4 °F 37.4 °F 37% 29.89 in 10.0 mi SW 11.5 mph - N/A   Clear
11:35 PM 64.4 °F 39.2 °F 40% 29.90 in 10.0 mi WSW 12.7 mph - N/A Thunderstorm Clear
11:55 PM 64.4 °F 39.2 °F 40% 29.90 in 10.0 mi SW 12.7 mph - N/A   Clear